createdAt,value
2019-01-21T00:00:32.153Z,21.43
2019-01-21T00:03:01.215Z,20.60
2019-01-21T00:05:29.619Z,20.07
2019-01-21T00:07:58.125Z,20.33
2019-01-21T00:10:26.529Z,20.87
2019-01-21T00:12:54.938Z,21.83
2019-01-21T00:15:23.377Z,20.90
2019-01-21T00:17:51.781Z,21.00
2019-01-21T00:20:20.199Z,21.33
2019-01-21T00:22:48.645Z,20.93
2019-01-21T00:25:17.053Z,21.40
2019-01-21T00:27:45.537Z,20.93
2019-01-21T00:30:14.065Z,20.70
2019-01-21T00:32:42.470Z,19.80
2019-01-21T00:35:11.223Z,19.33
2019-01-21T00:37:39.737Z,19.67
2019-01-21T00:40:16.594Z,19.50
2019-01-21T00:42:44.997Z,19.93
2019-01-21T00:45:13.951Z,20.47
2019-01-21T00:47:42.470Z,20.53
2019-01-21T00:50:12.430Z,20.50
2019-01-21T00:52:40.827Z,19.93
2019-01-21T00:55:11.423Z,21.57
2019-01-21T00:57:39.830Z,20.90
2019-01-21T01:00:13.822Z,20.47
2019-01-21T01:02:42.713Z,21.27
2019-01-21T01:05:11.662Z,21.17
2019-01-21T01:07:40.069Z,20.03
2019-01-21T01:10:11.670Z,19.87
2019-01-21T01:12:40.148Z,20.50
2019-01-21T01:15:10.994Z,19.93
2019-01-21T01:17:39.687Z,21.00
2019-01-21T01:20:14.189Z,20.07
2019-01-21T01:22:42.668Z,20.07
2019-01-21T01:25:11.221Z,19.20
2019-01-21T01:27:39.630Z,19.63
2019-01-21T01:30:11.246Z,19.20
2019-01-21T01:32:39.682Z,19.80
2019-01-21T01:35:09.639Z,20.53
2019-01-21T01:37:38.055Z,19.70
2019-01-21T01:40:10.826Z,19.43
2019-01-21T01:42:39.240Z,20.17
2019-01-21T01:45:10.999Z,19.00
2019-01-21T01:47:44.652Z,19.07
2019-01-21T01:50:09.848Z,19.80
2019-01-21T01:52:38.253Z,20.53
2019-01-21T01:55:09.862Z,19.95
2019-01-21T01:57:38.419Z,19.73
2019-01-21T02:00:10.822Z,19.15
2019-01-21T02:02:39.272Z,19.70
2019-01-21T02:05:07.831Z,20.53
2019-01-21T02:07:36.235Z,20.00
2019-01-21T02:10:07.987Z,20.50
2019-01-21T02:12:55.750Z,21.77
2019-01-21T02:15:24.196Z,21.87
2019-01-21T02:17:52.750Z,20.83
2019-01-21T02:20:21.334Z,21.13
2019-01-21T02:22:57.605Z,20.13
2019-01-21T02:25:29.194Z,21.43
2019-01-21T02:28:17.295Z,20.33
2019-01-21T02:31:14.430Z,20.73
2019-01-21T02:34:11.901Z,19.23
2019-01-21T02:36:59.987Z,19.63
2019-01-21T02:39:31.541Z,19.47
2019-01-21T02:42:03.029Z,20.03
2019-01-21T02:44:49.586Z,19.40
2019-01-21T02:47:21.315Z,20.63
2019-01-21T02:49:55.385Z,19.83
2019-01-21T02:52:33.223Z,19.90
2019-01-21T02:55:16.295Z,19.30
2019-01-21T02:58:07.630Z,20.53
2019-01-21T03:00:44.627Z,19.87
2019-01-21T03:03:32.887Z,20.10
2019-01-21T03:06:07.643Z,19.27
2019-01-21T03:09:14.085Z,19.43
2019-01-21T03:11:48.660Z,20.27
2019-01-21T03:14:35.071Z,19.70
2019-01-21T03:17:12.262Z,20.13
2019-01-21T03:19:55.804Z,19.10
2019-01-21T03:22:51.929Z,20.50
2019-01-21T03:25:41.892Z,20.53
2019-01-21T03:28:25.515Z,21.17
2019-01-21T03:31:26.600Z,21.37
2019-01-21T03:34:15.328Z,20.17
2019-01-21T03:37:17.918Z,21.20
2019-01-21T03:40:01.179Z,20.50
2019-01-21T03:42:41.746Z,21.27
2019-01-21T03:45:45.155Z,20.53
2019-01-21T03:48:22.449Z,20.60
2019-01-21T03:51:15.110Z,19.73
2019-01-21T03:53:49.783Z,22.20
2019-01-21T03:56:21.734Z,20.23
2019-01-21T03:58:58.990Z,19.90
2019-01-21T04:01:39.602Z,20.10
2019-01-21T04:04:19.898Z,20.80
2019-01-21T04:06:51.875Z,20.67
2019-01-21T04:09:26.529Z,20.00
2019-01-21T04:12:19.237Z,20.43
2019-01-21T04:15:11.878Z,19.00
2019-01-21T04:17:46.322Z,20.17
2019-01-21T04:20:31.725Z,20.77
2019-01-21T04:23:03.530Z,20.43
2019-01-21T04:25:37.527Z,21.13
2019-01-21T04:28:11.894Z,19.23
2019-01-21T04:30:55.348Z,20.47
2019-01-21T04:33:26.971Z,20.87
2019-01-21T04:36:18.374Z,19.13
2019-01-21T04:39:01.470Z,20.10
2019-01-21T04:41:38.910Z,18.77
2019-01-21T04:44:34.447Z,19.87
2019-01-21T04:47:21.095Z,19.07
2019-01-21T04:49:55.137Z,19.30
2019-01-21T04:52:35.264Z,18.40
2019-01-21T04:55:26.460Z,18.97
2019-01-21T04:58:00.644Z,20.23
2019-01-21T05:00:55.337Z,20.70
2019-01-21T05:03:43.393Z,18.27
2019-01-21T05:06:38.779Z,19.87
2019-01-21T05:09:10.438Z,19.87
2019-01-21T05:11:47.846Z,19.87
2019-01-21T05:14:22.403Z,19.00
2019-01-21T05:16:59.365Z,19.33
2019-01-21T05:19:58.098Z,19.83
2019-01-21T05:22:29.718Z,19.13
2019-01-21T05:25:34.446Z,20.23
2019-01-21T05:28:08.833Z,20.17
2019-01-21T05:30:49.104Z,19.37
2019-01-21T05:33:26.545Z,19.43
2019-01-21T05:36:07.095Z,19.50
2019-01-21T05:38:50.651Z,19.57
2019-01-21T05:41:25.131Z,19.47
2019-01-21T05:44:19.420Z,19.77
2019-01-21T05:47:10.256Z,20.53
2019-01-21T05:49:54.072Z,21.20
2019-01-21T05:52:43.521Z,19.50
2019-01-21T05:55:15.258Z,20.80
2019-01-21T05:57:58.891Z,21.33
2019-01-21T06:00:46.887Z,20.17
2019-01-21T06:03:42.321Z,21.00
2019-01-21T06:06:19.741Z,20.47
2019-01-21T06:09:18.701Z,19.77
2019-01-21T06:12:05.334Z,19.63
2019-01-21T06:14:39.666Z,20.03
2019-01-21T06:17:20.384Z,19.77
2019-01-21T06:19:51.917Z,20.37
2019-01-21T06:22:41.544Z,19.93
2019-01-21T06:25:22.169Z,19.60
2019-01-21T06:27:53.660Z,19.50
2019-01-21T06:30:25.258Z,20.27
2019-01-21T06:33:15.984Z,19.37
2019-01-21T06:35:53.158Z,19.67
2019-01-21T06:38:33.545Z,19.97
2019-01-21T06:41:19.983Z,19.57
2019-01-21T06:44:00.346Z,19.13
2019-01-21T06:46:46.163Z,19.10
2019-01-21T06:49:41.733Z,19.23
2019-01-21T06:52:32.885Z,19.53
2019-01-21T06:55:20.891Z,19.03
2019-01-21T06:58:12.338Z,18.83
2019-01-21T07:00:50.046Z,19.90
2019-01-21T07:03:29.815Z,18.03
2019-01-21T07:06:16.170Z,18.77
2019-01-21T07:09:02.683Z,19.97
2019-01-21T07:11:49.633Z,20.27
2019-01-21T07:14:29.647Z,20.70
2019-01-21T07:17:04.139Z,20.30
2019-01-21T07:19:38.426Z,20.17
2019-01-21T07:22:25.081Z,20.53
2019-01-21T07:25:20.822Z,20.43
2019-01-21T07:28:04.406Z,19.87
2019-01-21T07:30:41.932Z,21.73
2019-01-21T07:33:34.085Z,21.87
2019-01-21T07:36:23.840Z,21.57
2019-01-21T07:39:04.731Z,21.20
2019-01-21T07:41:45.338Z,20.50
2019-01-21T07:44:22.638Z,20.30
2019-01-21T07:46:56.717Z,19.87
2019-01-21T07:49:50.686Z,21.57
2019-01-21T07:52:34.350Z,21.63
2019-01-21T07:55:08.561Z,22.87
2019-01-21T07:57:43.458Z,23.23
2019-01-21T08:00:38.910Z,24.47
2019-01-21T08:03:10.645Z,23.93
2019-01-21T08:05:56.929Z,24.50
2019-01-21T08:08:28.450Z,23.80
2019-01-21T08:11:06.087Z,24.93
2019-01-21T08:13:43.485Z,24.90
2019-01-21T08:16:27.055Z,23.47
2019-01-21T08:18:58.873Z,24.60
2019-01-21T08:22:05.210Z,23.03
2019-01-21T08:24:46.310Z,22.30
2019-01-21T08:27:29.598Z,23.20
2019-01-21T08:30:36.394Z,24.23
2019-01-21T08:33:20.261Z,24.27
2019-01-21T08:35:51.808Z,24.57
2019-01-21T08:38:39.637Z,23.80
2019-01-21T08:41:16.597Z,24.40
2019-01-21T08:43:57.214Z,24.53
2019-01-21T08:46:37.859Z,24.43
2019-01-21T08:49:12.031Z,24.43
2019-01-21T08:51:49.142Z,24.00
2019-01-21T08:54:20.679Z,23.17
2019-01-21T08:56:58.088Z,22.80
2019-01-21T08:59:38.383Z,22.73
2019-01-21T09:02:36.668Z,23.27
2019-01-21T09:05:08.191Z,23.97
2019-01-21T09:07:42.329Z,23.10
2019-01-21T09:10:19.809Z,23.70
2019-01-21T09:13:00.027Z,23.20
2019-01-21T09:15:37.327Z,22.57
2019-01-21T09:18:23.965Z,23.70
2019-01-21T09:21:04.508Z,23.30
2019-01-21T09:23:36.006Z,23.50
2019-01-21T09:26:16.402Z,25.17
2019-01-21T09:28:53.558Z,24.67
2019-01-21T09:31:39.522Z,24.10
2019-01-21T09:34:29.378Z,23.50
2019-01-21T09:37:18.626Z,23.53
2019-01-21T09:40:11.431Z,23.53
2019-01-21T09:42:51.844Z,23.90
2019-01-21T09:45:39.057Z,24.60
2019-01-21T09:48:06.425Z,25.70
2019-01-21T09:50:35.974Z,25.50
2019-01-21T09:53:06.057Z,26.20
2019-01-21T09:55:34.774Z,25.73
2019-01-21T09:58:06.289Z,25.73
2019-01-21T10:00:34.960Z,23.67
2019-01-21T10:03:04.829Z,24.47
2019-01-21T10:05:34.770Z,24.40
2019-01-21T10:08:09.055Z,24.80
2019-01-21T10:10:55.755Z,24.57
2019-01-21T10:13:33.217Z,25.07
2019-01-21T10:16:07.569Z,22.77
2019-01-21T10:18:58.899Z,24.30
2019-01-21T10:21:39.618Z,24.23
2019-01-21T10:24:23.293Z,24.30
2019-01-21T10:27:03.790Z,24.33
2019-01-21T10:29:53.738Z,24.90
2019-01-21T10:32:37.308Z,22.87
2019-01-21T10:35:11.715Z,24.17
2019-01-21T10:38:00.076Z,22.87
2019-01-21T10:40:43.462Z,23.47
2019-01-21T10:43:24.029Z,23.67
2019-01-21T10:46:03.883Z,21.00
2019-01-21T10:48:35.393Z,19.57
2019-01-21T10:51:43.277Z,18.50
2019-01-21T10:54:29.897Z,19.77
2019-01-21T10:57:31.475Z,19.77
2019-01-21T11:00:30.162Z,19.07
2019-01-21T11:03:02.651Z,19.53
2019-01-21T11:05:59.685Z,19.47
2019-01-21T11:08:45.494Z,19.03
2019-01-21T11:11:28.994Z,27.17
2019-01-21T11:14:12.529Z,19.70
2019-01-21T11:16:53.106Z,19.90
2019-01-21T11:19:33.496Z,19.60
2019-01-21T11:22:05.001Z,22.70
2019-01-21T11:24:38.919Z,20.83
2019-01-21T11:27:16.269Z,21.10
2019-01-21T11:29:50.604Z,20.70
2019-01-21T11:32:34.166Z,20.17
2019-01-21T11:35:33.250Z,20.23
2019-01-21T11:38:07.416Z,20.83
2019-01-21T11:40:38.922Z,20.00
2019-01-21T11:43:10.582Z,19.83
2019-01-21T11:45:57.226Z,20.17
2019-01-21T11:48:41.134Z,19.80
2019-01-21T11:51:24.492Z,19.73
2019-01-21T11:54:16.863Z,19.47
2019-01-21T11:57:00.477Z,17.80
2019-01-21T11:59:34.528Z,19.97
2019-01-21T12:02:21.193Z,19.57
2019-01-21T12:04:58.950Z,19.23
2019-01-21T12:07:33.619Z,19.33
2019-01-21T12:10:20.014Z,19.20
2019-01-21T12:13:07.689Z,19.53
2019-01-21T12:15:59.717Z,20.37
2019-01-21T12:18:31.197Z,19.50
2019-01-21T12:21:17.841Z,21.03
2019-01-21T12:23:55.175Z,19.67
2019-01-21T12:26:46.002Z,19.73
2019-01-21T12:29:20.121Z,19.60
2019-01-21T12:32:00.522Z,19.93
2019-01-21T12:34:37.797Z,20.00
2019-01-21T12:37:09.362Z,19.83
2019-01-21T12:39:49.869Z,20.13
2019-01-21T12:42:36.377Z,19.13
2019-01-21T12:45:10.766Z,19.73
2019-01-21T12:47:48.225Z,18.97
2019-01-21T12:50:37.970Z,19.13
2019-01-21T12:53:27.433Z,19.47
2019-01-21T12:56:04.509Z,19.87
2019-01-21T12:58:36.009Z,20.93
2019-01-21T13:01:13.333Z,19.10
2019-01-21T13:04:00.146Z,18.27
2019-01-21T13:06:58.770Z,19.93
2019-01-21T13:09:45.478Z,19.83
2019-01-21T13:12:45.905Z,18.63
2019-01-21T13:15:23.206Z,20.00
2019-01-21T13:18:00.505Z,19.87
2019-01-21T13:20:34.791Z,20.33
2019-01-21T13:23:06.345Z,19.50
2019-01-21T13:25:53.146Z,20.00
2019-01-21T13:28:31.457Z,19.17
2019-01-21T13:31:19.950Z,19.07
2019-01-21T13:34:00.283Z,20.30
2019-01-21T13:36:51.574Z,19.30
2019-01-21T13:39:47.310Z,19.23
2019-01-21T13:42:18.818Z,18.83
2019-01-21T13:44:58.621Z,18.83
2019-01-21T13:47:35.989Z,18.33
2019-01-21T13:50:25.454Z,19.00
2019-01-21T13:53:13.420Z,18.13
2019-01-21T13:55:54.087Z,18.97
2019-01-21T13:58:28.706Z,18.43
2019-01-21T14:01:18.267Z,17.67
2019-01-21T14:04:07.681Z,18.33
2019-01-21T14:06:48.208Z,17.67
2019-01-21T14:09:35.059Z,17.63
2019-01-21T14:12:21.293Z,19.17
2019-01-21T14:15:09.171Z,17.43
2019-01-21T14:17:55.711Z,17.57
2019-01-21T14:20:30.171Z,16.97
2019-01-21T14:23:07.381Z,17.20
2019-01-21T14:25:54.098Z,17.47
2019-01-21T14:28:43.076Z,16.00
2019-01-21T14:31:33.069Z,16.53
2019-01-21T14:34:16.629Z,16.77
2019-01-21T14:37:03.226Z,15.63
2019-01-21T14:39:43.937Z,16.07
2019-01-21T14:42:35.105Z,16.37
2019-01-21T14:45:15.403Z,15.23
2019-01-21T14:47:46.945Z,15.97
2019-01-21T14:50:37.972Z,15.70
2019-01-21T14:53:21.231Z,15.87
2019-01-21T14:55:58.665Z,16.03
2019-01-21T14:58:32.945Z,16.40
2019-01-21T15:01:07.784Z,16.80
2019-01-21T15:03:51.317Z,17.33
2019-01-21T15:06:41.214Z,17.00
2019-01-21T15:09:19.078Z,16.50
2019-01-21T15:11:53.307Z,17.33
2019-01-21T15:14:43.217Z,17.27
2019-01-21T15:17:21.595Z,16.43
2019-01-21T15:19:51.289Z,16.40
2019-01-21T15:22:22.961Z,16.70
2019-01-21T15:25:12.520Z,17.53
2019-01-21T15:27:59.549Z,16.57
2019-01-21T15:30:37.254Z,17.30
2019-01-21T15:33:15.937Z,17.27
2019-01-21T15:35:59.916Z,17.23
2019-01-21T15:38:48.245Z,16.47
2019-01-21T15:41:31.785Z,16.07
2019-01-21T15:44:15.335Z,15.53
2019-01-21T15:46:52.655Z,15.97
2019-01-21T15:49:29.966Z,16.07
2019-01-21T15:52:04.120Z,15.50
2019-01-21T15:54:35.642Z,15.60
2019-01-21T15:57:19.375Z,14.63
2019-01-21T16:00:10.210Z,15.17
2019-01-21T16:02:44.623Z,15.20
2019-01-21T16:05:28.142Z,17.33
2019-01-21T16:07:59.700Z,17.43
2019-01-21T16:10:52.080Z,19.03
2019-01-21T16:13:25.258Z,18.33
2019-01-21T16:16:11.752Z,20.10
2019-01-21T16:18:52.390Z,18.53
2019-01-21T16:21:57.602Z,19.17
2019-01-21T16:24:44.144Z,19.03
2019-01-21T16:27:21.279Z,19.47
2019-01-21T16:29:55.466Z,19.40
2019-01-21T16:32:25.331Z,20.90
2019-01-21T16:34:59.236Z,19.40
2019-01-21T16:37:42.767Z,24.57
2019-01-21T16:40:23.367Z,19.90
2019-01-21T16:42:51.803Z,20.37
2019-01-21T16:45:20.226Z,19.47
2019-01-21T16:47:48.740Z,20.20
2019-01-21T16:50:17.421Z,20.03
2019-01-21T16:52:45.884Z,20.33
2019-01-21T16:55:14.343Z,20.37
2019-01-21T16:57:42.754Z,20.10
2019-01-21T17:00:14.522Z,20.23
2019-01-21T17:02:42.946Z,20.30
2019-01-21T17:05:12.928Z,21.47
2019-01-21T17:07:41.387Z,21.40
2019-01-21T17:10:11.889Z,20.90
2019-01-21T17:12:40.353Z,21.73
2019-01-21T17:15:11.490Z,21.23
2019-01-21T17:17:40.115Z,21.27
2019-01-21T17:20:14.338Z,22.03
2019-01-21T17:22:42.713Z,21.80
2019-01-21T17:25:11.654Z,22.17
2019-01-21T17:27:40.150Z,21.83
2019-01-21T17:30:11.634Z,21.77
2019-01-21T17:32:40.038Z,22.67
2019-01-21T17:35:10.537Z,23.00
2019-01-21T17:37:38.995Z,21.17
2019-01-21T17:40:13.777Z,23.32
2019-01-21T17:42:42.186Z,24.47
2019-01-21T17:45:13.690Z,23.40
2019-01-21T17:47:42.233Z,24.00
2019-01-21T17:50:13.082Z,25.07
2019-01-21T17:52:41.537Z,23.77
2019-01-21T17:55:11.186Z,25.80
2019-01-21T17:57:39.597Z,24.47
2019-01-21T18:00:11.395Z,25.67
2019-01-21T18:02:39.811Z,25.20
2019-01-21T18:05:08.346Z,24.27
2019-01-21T18:07:36.782Z,25.80
2019-01-21T18:10:08.315Z,25.10
2019-01-21T18:12:36.728Z,25.13
2019-01-21T18:15:08.310Z,26.57
2019-01-21T18:17:36.714Z,25.97
2019-01-21T18:20:14.397Z,24.67
2019-01-21T18:22:42.859Z,26.50
2019-01-21T18:25:12.506Z,26.57
2019-01-21T18:27:40.963Z,26.87
2019-01-21T18:30:18.398Z,26.60
2019-01-21T18:32:46.875Z,26.40
2019-01-21T18:35:15.856Z,27.33
2019-01-21T18:37:44.406Z,29.07
2019-01-21T18:40:15.801Z,28.00
2019-01-21T18:42:44.751Z,29.63
2019-01-21T18:45:16.624Z,29.17
2019-01-21T18:47:45.087Z,29.77
2019-01-21T18:50:13.707Z,28.03
2019-01-21T18:52:42.386Z,30.00
2019-01-21T18:55:10.808Z,29.93
2019-01-21T18:57:39.305Z,29.03
2019-01-21T19:00:13.771Z,30.00
2019-01-21T19:02:43.363Z,28.70
2019-01-21T19:05:12.111Z,29.20
2019-01-21T19:07:40.585Z,28.87
2019-01-21T19:10:11.679Z,29.57
2019-01-21T19:12:40.092Z,28.40
2019-01-21T19:15:14.811Z,29.77
2019-01-21T19:17:43.243Z,28.33
2019-01-21T19:20:13.996Z,28.07
2019-01-21T19:22:42.451Z,28.37
2019-01-21T19:25:11.709Z,29.83
2019-01-21T19:27:40.488Z,28.13
2019-01-21T19:30:12.155Z,28.20
2019-01-21T19:32:40.572Z,28.10
2019-01-21T19:35:15.333Z,28.03
2019-01-21T19:37:43.969Z,28.10
2019-01-21T19:40:15.593Z,29.13
2019-01-21T19:42:44.016Z,28.57
2019-01-21T19:45:13.092Z,29.47
2019-01-21T19:47:41.762Z,28.87
2019-01-21T19:50:13.488Z,28.07
2019-01-21T19:52:41.903Z,29.27
2019-01-21T19:55:19.361Z,29.43
2019-01-21T19:57:48.018Z,27.50
2019-01-21T20:00:21.495Z,29.27
2019-01-21T20:02:49.929Z,28.90
2019-01-21T20:05:18.674Z,29.43
2019-01-21T20:07:47.081Z,30.97
2019-01-21T20:10:18.444Z,29.17
2019-01-21T20:12:47.187Z,29.77
2019-01-21T20:15:17.434Z,29.13
2019-01-21T20:17:45.850Z,29.97
2019-01-21T20:20:20.212Z,29.37
2019-01-21T20:22:48.677Z,29.37
2019-01-21T20:25:17.081Z,28.97
2019-01-21T20:27:45.533Z,30.00
2019-01-21T20:30:16.861Z,29.27
2019-01-21T20:32:45.277Z,27.93
2019-01-21T20:35:14.753Z,28.23
2019-01-21T20:37:43.166Z,27.23
2019-01-21T20:40:21.197Z,28.57
2019-01-21T20:42:49.606Z,28.00
2019-01-21T20:45:18.286Z,29.63
2019-01-21T20:47:46.974Z,29.20
2019-01-21T20:50:18.395Z,29.00
2019-01-21T20:52:46.838Z,30.57
2019-01-21T20:55:16.026Z,29.03
2019-01-21T20:57:44.434Z,30.13
2019-01-21T21:00:18.991Z,30.70
2019-01-21T21:02:47.482Z,30.60
2019-01-21T21:05:16.218Z,28.93
2019-01-21T21:07:44.990Z,31.00
2019-01-21T21:10:13.663Z,30.27
2019-01-21T21:12:42.073Z,30.23
2019-01-21T21:15:16.378Z,29.27
2019-01-21T21:17:44.782Z,30.20
2019-01-21T21:20:13.881Z,29.77
2019-01-21T21:22:42.350Z,30.50
2019-01-21T21:25:13.865Z,28.80
2019-01-21T21:27:42.271Z,29.20
2019-01-21T21:30:22.683Z,29.83
2019-01-21T21:32:51.096Z,31.07
2019-01-21T21:35:19.977Z,31.53
2019-01-21T21:37:48.422Z,29.17
2019-01-21T21:40:19.174Z,29.03
2019-01-21T21:42:47.654Z,30.60
2019-01-21T21:45:20.887Z,31.73
2019-01-21T21:47:49.985Z,29.53
2019-01-21T21:50:27.154Z,30.10
2019-01-21T21:52:55.567Z,29.60
2019-01-21T21:55:23.982Z,28.67
2019-01-21T21:57:52.564Z,29.13
2019-01-21T22:00:26.594Z,28.47
2019-01-21T22:02:54.998Z,29.37
2019-01-21T22:05:24.103Z,29.67
2019-01-21T22:07:52.515Z,29.97
2019-01-21T22:10:25.677Z,31.13
2019-01-21T22:12:54.141Z,31.20
2019-01-21T22:15:24.000Z,30.60
2019-01-21T22:17:52.434Z,29.83
2019-01-21T22:20:22.697Z,30.13
2019-01-21T22:22:51.166Z,30.63
2019-01-21T22:25:19.994Z,32.27
2019-01-21T22:27:48.393Z,30.43
2019-01-21T22:30:19.154Z,32.40
2019-01-21T22:32:47.562Z,32.90
2019-01-21T22:35:16.010Z,32.93
2019-01-21T22:37:44.906Z,31.97
2019-01-21T22:40:19.166Z,33.20
2019-01-21T22:42:47.611Z,32.80
2019-01-21T22:45:17.563Z,33.10
2019-01-21T22:47:45.978Z,33.90
2019-01-21T22:50:15.740Z,33.30
2019-01-21T22:52:44.150Z,31.63
2019-01-21T22:55:14.211Z,33.33
2019-01-21T22:57:42.651Z,32.17
2019-01-21T23:00:33.227Z,33.20
2019-01-21T23:03:01.989Z,31.83
2019-01-21T23:05:30.408Z,32.53
2019-01-21T23:07:58.893Z,32.30
2019-01-21T23:10:27.387Z,31.90
2019-01-21T23:12:56.236Z,32.57
2019-01-21T23:15:24.650Z,32.20
2019-01-21T23:17:53.160Z,32.33
2019-01-21T23:20:21.577Z,31.47
2019-01-21T23:22:49.995Z,33.77
2019-01-21T23:25:18.442Z,34.00
2019-01-21T23:27:46.860Z,34.07
2019-01-21T23:30:24.495Z,34.30
2019-01-21T23:32:52.908Z,32.93
2019-01-21T23:35:21.587Z,33.80
2019-01-21T23:37:50.403Z,33.53
2019-01-21T23:40:18.845Z,32.50
2019-01-21T23:42:47.262Z,34.03
2019-01-21T23:45:15.691Z,33.40
2019-01-21T23:47:44.201Z,34.50
2019-01-21T23:50:16.943Z,33.73
2019-01-21T23:52:45.430Z,33.97
2019-01-21T23:55:14.311Z,33.57
2019-01-21T23:57:42.815Z,33.20
